F/V Guevellezed 2 — FGE8986 — position and weather

sailwx.info

Track history (hours):
 
Tides and Currents Weather Stations Pressure Air Temp Water Temp Dewpoint Dewpoint Depression Visibility Wind Speed Wind Dir Waves Ship Positions

F/V Guevellezed 2

Last reported at 2018-May-20 10:29 UTC. Time now 2018-May-20 21:50 UTC.
Position N 47°44' W 003°22'.

Length 12 m.

Type: Fishing. MMSI: 227686910.

Date/timePositionNaut miles runAvg speedWind from/ knotsBaromVisibWave heightAir tempDewpointWater temp
2018-May-20 10:29N 47°44' W 003°22'2 4.9
2018-May-20 10:00N 47°42' W 003°24'3 5.7
2018-May-20 09:29N 47°42' W 003°28'0 0.0
2018-May-20 08:37N 47°42' W 003°28'1 5.9
2018-May-20 08:29N 47°42' W 003°27'4 7.4
2018-May-20 07:59N 47°43' W 003°22'1 0.1
2018-May-19 12:38N 47°44' W 003°22'0 0.0
2018-May-19 12:30N 47°44' W 003°22'1 1.5
2018-May-19 12:00N 47°43' W 003°22'4 7.8
2018-May-19 11:30N 47°39' W 003°23'4 7.6
2018-May-19 11:00N 47°36' W 003°26'3 5.3
2018-May-19 10:30N 47°34' W 003°28'1 1.7
2018-May-19 10:00N 47°34' W 003°27'1 1.4
2018-May-19 09:30N 47°33' W 003°27'1 1.2
2018-May-19 08:59N 47°33' W 003°28'0 0.4
2018-May-19 08:30N 47°33' W 003°28'0 0.4
2018-May-19 07:58N 47°33' W 003°28'0 0.8
2018-May-19 07:27N 47°33' W 003°29'0 1.0
2018-May-19 06:59N 47°34' W 003°29'1 1.8
2018-May-19 06:30N 47°33' W 003°28'1 2.7
2018-May-19 06:00N 47°32' W 003°27'4 6.9
2018-May-19 05:29N 47°29' W 003°26'0 0.5
2018-May-19 04:55N 47°29' W 003°26'1 1.7
2018-May-19 04:28N 47°30' W 003°27'1 1.7
2018-May-19 03:59N 47°31' W 003°27'2 4.9
2018-May-19 03:30N 47°33' W 003°28'3 2.4
2018-May-19 02:02N 47°36' W 003°25'1 7.9
2018-May-19 01:55N 47°37' W 003°24'4 8.2
2018-May-19 01:29N 47°40' W 003°23'4 7.3
2018-May-19 01:00N 47°44' W 003°22'0 0.0
2018-May-18 12:20N 47°44' W 003°22'0 0.1
2018-May-18 11:58N 47°44' W 003°22'1 1.8
2018-May-18 11:30N 47°43' W 003°22'4 7.8
2018-May-18 10:59N 47°39' W 003°23'4 7.9
2018-May-18 10:30N 47°35' W 003°25'4 7.7
2018-May-18 10:00N 47°32' W 003°28'1 1.6
2018-May-18 09:27N 47°32' W 003°29'0 1.1
2018-May-18 09:00N 47°32' W 003°28'1 1.1
2018-May-18 08:30N 47°32' W 003°28'0 0.5
2018-May-18 07:47N 47°31' W 003°28'0 0.9
2018-May-18 07:31N 47°31' W 003°28'0 0.3
2018-May-18 06:40N 47°31' W 003°28'1 3.9
2018-May-18 06:30N 47°31' W 003°29'1 1.7
2018-May-18 05:57N 47°31' W 003°28'0 0.6
2018-May-18 05:28N 47°31' W 003°29'1 1.2
2018-May-18 04:57N 47°31' W 003°28'1 2.2
2018-May-18 04:28N 47°32' W 003°27'1 1.5
2018-May-18 03:53N 47°32' W 003°29'1 1.8
2018-May-18 03:29N 47°31' W 003°28'1 1.4
2018-May-18 02:55N 47°32' W 003°28'1 3.0
2018-May-18 02:30N 47°33' W 003°27'4 8.1
2018-May-18 01:59N 47°37' W 003°25'4 8.2
2018-May-18 01:30N 47°40' W 003°23'4 6.8
2018-May-18 00:59N 47°44' W 003°22'0 0.0
2018-May-17 13:44N 47°44' W 003°22'0 0.1
2018-May-17 13:28N 47°44' W 003°22'0 0.8
2018-May-17 13:00N 47°43' W 003°22'4 8.4
2018-May-17 12:30N 47°39' W 003°23'4 8.5
2018-May-17 12:00N 47°35' W 003°25'4 7.4
2018-May-17 11:29N 47°32' W 003°27'2 5.1
2018-May-17 11:00N 47°29' W 003°27'4 6.9
2018-May-17 10:29N 47°31' W 003°22'6 2.0
2018-May-17 07:32N 47°34' W 003°15'0 2.0
2018-May-17 07:29N 47°34' W 003°15'1 2.3
2018-May-17 07:00N 47°34' W 003°13'1 0.3
2018-May-17 03:25N 47°35' W 003°12'3 6.3
2018-May-17 02:59N 47°34' W 003°15'4 4.8
2018-May-17 02:09N 47°37' W 003°18'1 7.5
2018-May-17 02:00N 47°38' W 003°19'4 7.6
2018-May-17 01:30N 47°41' W 003°22'3 5.1
2018-May-17 00:59N 47°44' W 003°22'0 0.0
2018-May-16 15:12N 47°44' W 003°22'0 0.0
2018-May-16 15:00N 47°44' W 003°22'0 0.0
2018-May-16 14:30N 47°44' W 003°22'0 0.0
2018-May-16 13:57N 47°44' W 003°22'0 0.0
2018-May-16 13:30N 47°44' W 003°22'0 0.1
2018-May-16 12:59N 47°44' W 003°22'0 0.0
2018-May-16 12:29N 47°44' W 003°22'0 0.0
2018-May-16 11:59N 47°44' W 003°22'0 0.0
2018-May-16 11:29N 47°44' W 003°22'3 6.9
2018-May-16 11:00N 47°40' W 003°22'4 8.1
2018-May-16 10:30N 47°37' W 003°19'4 1.6
2018-May-16 08:03N 47°34' W 003°15'1 8.8
2018-May-16 07:58N 47°34' W 003°14'3 0.5
2018-May-16 02:18N 47°36' W 003°17'2 7.8
2018-May-16 01:59N 47°38' W 003°19'4 7.6
2018-May-16 01:30N 47°41' W 003°22'3 5.9
2018-May-16 01:00N 47°44' W 003°22'0 0.0
2018-May-15 13:17N 47°44' W 003°22'0 0.1
2018-May-15 12:57N 47°44' W 003°22'3 7.2
2018-May-15 12:30N 47°41' W 003°22'4 7.6
2018-May-15 12:00N 47°38' W 003°17'4 7.4
2018-May-15 11:30N 47°37' W 003°12'1 0.2
2018-May-15 02:26N 47°36' W 003°14'3 8.0
2018-May-15 02:00N 47°38' W 003°18'4 8.0
2018-May-15 01:29N 47°41' W 003°22'3 5.8
2018-May-15 00:59N 47°44' W 003°22'0 0.0
2018-May-14 13:27N 47°44' W 003°22'0 0.1
2018-May-14 12:55N 47°44' W 003°22'1 1.8
2018-May-14 12:30N 47°43' W 003°22'3 6.8
2018-May-14 12:00N 47°40' W 003°20'4 7.4
2018-May-14 11:30N 47°38' W 003°15'2 0.3
2018-May-14 02:30N 47°36' W 003°15'4 7.8
2018-May-14 02:00N 47°38' W 003°20'4 7.8
2018-May-14 01:30N 47°41' W 003°22'3 5.2
2018-May-14 00:59N 47°44' W 003°22'0 0.0
2018-May-12 09:35N 47°44' W 003°22'0 0.0
2018-May-12 09:29N 47°44' W 003°22'  
Track history (hours):
 
Tides and Currents Weather Stations Pressure Air Temp Water Temp Dewpoint Dewpoint Depression Visibility Wind Speed Wind Dir Waves Ship Positions

F/V Guevellezed 2

Last reported at 2018-May-20 10:29 UTC. Time now 2018-May-20 21:50 UTC.
Position N 47°44' W 003°22'.

Length 12 m.

Type: Fishing. MMSI: 227686910.

Date/timePositionNaut miles runAvg speedWind from/ knotsBaromVisibWave heightAir tempDewpointWater temp
2018-May-20 10:29N 47°44' W 003°22'2 4.9
2018-May-20 10:00N 47°42' W 003°24'3 5.7
2018-May-20 09:29N 47°42' W 003°28'0 0.0
2018-May-20 08:37N 47°42' W 003°28'1 5.9
2018-May-20 08:29N 47°42' W 003°27'4 7.4
2018-May-20 07:59N 47°43' W 003°22'1 0.1
2018-May-19 12:38N 47°44' W 003°22'0 0.0
2018-May-19 12:30N 47°44' W 003°22'1 1.5
2018-May-19 12:00N 47°43' W 003°22'4 7.8
2018-May-19 11:30N 47°39' W 003°23'4 7.6
2018-May-19 11:00N 47°36' W 003°26'3 5.3
2018-May-19 10:30N 47°34' W 003°28'1 1.7
2018-May-19 10:00N 47°34' W 003°27'1 1.4
2018-May-19 09:30N 47°33' W 003°27'1 1.2
2018-May-19 08:59N 47°33' W 003°28'0 0.4
2018-May-19 08:30N 47°33' W 003°28'0 0.4
2018-May-19 07:58N 47°33' W 003°28'0 0.8
2018-May-19 07:27N 47°33' W 003°29'0 1.0
2018-May-19 06:59N 47°34' W 003°29'1 1.8
2018-May-19 06:30N 47°33' W 003°28'1 2.7
2018-May-19 06:00N 47°32' W 003°27'4 6.9
2018-May-19 05:29N 47°29' W 003°26'0 0.5
2018-May-19 04:55N 47°29' W 003°26'1 1.7
2018-May-19 04:28N 47°30' W 003°27'1 1.7
2018-May-19 03:59N 47°31' W 003°27'2 4.9
2018-May-19 03:30N 47°33' W 003°28'3 2.4
2018-May-19 02:02N 47°36' W 003°25'1 7.9
2018-May-19 01:55N 47°37' W 003°24'4 8.2
2018-May-19 01:29N 47°40' W 003°23'4 7.3
2018-May-19 01:00N 47°44' W 003°22'0 0.0
2018-May-18 12:20N 47°44' W 003°22'0 0.1
2018-May-18 11:58N 47°44' W 003°22'1 1.8
2018-May-18 11:30N 47°43' W 003°22'4 7.8
2018-May-18 10:59N 47°39' W 003°23'4 7.9
2018-May-18 10:30N 47°35' W 003°25'4 7.7
2018-May-18 10:00N 47°32' W 003°28'1 1.6
2018-May-18 09:27N 47°32' W 003°29'0 1.1
2018-May-18 09:00N 47°32' W 003°28'1 1.1
2018-May-18 08:30N 47°32' W 003°28'0 0.5
2018-May-18 07:47N 47°31' W 003°28'0 0.9
2018-May-18 07:31N 47°31' W 003°28'0 0.3
2018-May-18 06:40N 47°31' W 003°28'1 3.9
2018-May-18 06:30N 47°31' W 003°29'1 1.7
2018-May-18 05:57N 47°31' W 003°28'0 0.6
2018-May-18 05:28N 47°31' W 003°29'1 1.2
2018-May-18 04:57N 47°31' W 003°28'1 2.2
2018-May-18 04:28N 47°32' W 003°27'1 1.5
2018-May-18 03:53N 47°32' W 003°29'1 1.8
2018-May-18 03:29N 47°31' W 003°28'1 1.4
2018-May-18 02:55N 47°32' W 003°28'1 3.0
2018-May-18 02:30N 47°33' W 003°27'4 8.1
2018-May-18 01:59N 47°37' W 003°25'4 8.2
2018-May-18 01:30N 47°40' W 003°23'4 6.8
2018-May-18 00:59N 47°44' W 003°22'0 0.0
2018-May-17 13:44N 47°44' W 003°22'0 0.1
2018-May-17 13:28N 47°44' W 003°22'0 0.8
2018-May-17 13:00N 47°43' W 003°22'4 8.4
2018-May-17 12:30N 47°39' W 003°23'4 8.5
2018-May-17 12:00N 47°35' W 003°25'4 7.4
2018-May-17 11:29N 47°32' W 003°27'2 5.1
2018-May-17 11:00N 47°29' W 003°27'4 6.9
2018-May-17 10:29N 47°31' W 003°22'6 2.0
2018-May-17 07:32N 47°34' W 003°15'0 2.0
2018-May-17 07:29N 47°34' W 003°15'1 2.3
2018-May-17 07:00N 47°34' W 003°13'1 0.3
2018-May-17 03:25N 47°35' W 003°12'3 6.3
2018-May-17 02:59N 47°34' W 003°15'4 4.8
2018-May-17 02:09N 47°37' W 003°18'1 7.5
2018-May-17 02:00N 47°38' W 003°19'4 7.6
2018-May-17 01:30N 47°41' W 003°22'3 5.1
2018-May-17 00:59N 47°44' W 003°22'0 0.0
2018-May-16 15:12N 47°44' W 003°22'0 0.0
2018-May-16 15:00N 47°44' W 003°22'0 0.0
2018-May-16 14:30N 47°44' W 003°22'0 0.0
2018-May-16 13:57N 47°44' W 003°22'0 0.0
2018-May-16 13:30N 47°44' W 003°22'0 0.1
2018-May-16 12:59N 47°44' W 003°22'0 0.0
2018-May-16 12:29N 47°44' W 003°22'0 0.0
2018-May-16 11:59N 47°44' W 003°22'0 0.0
2018-May-16 11:29N 47°44' W 003°22'3 6.9
2018-May-16 11:00N 47°40' W 003°22'4 8.1
2018-May-16 10:30N 47°37' W 003°19'4 1.6
2018-May-16 08:03N 47°34' W 003°15'1 8.8
2018-May-16 07:58N 47°34' W 003°14'3 0.5
2018-May-16 02:18N 47°36' W 003°17'2 7.8
2018-May-16 01:59N 47°38' W 003°19'4 7.6
2018-May-16 01:30N 47°41' W 003°22'3 5.9
2018-May-16 01:00N 47°44' W 003°22'0 0.0
2018-May-15 13:17N 47°44' W 003°22'0 0.1
2018-May-15 12:57N 47°44' W 003°22'3 7.2
2018-May-15 12:30N 47°41' W 003°22'4 7.6
2018-May-15 12:00N 47°38' W 003°17'4 7.4
2018-May-15 11:30N 47°37' W 003°12'1 0.2
2018-May-15 02:26N 47°36' W 003°14'3 8.0
2018-May-15 02:00N 47°38' W 003°18'4 8.0
2018-May-15 01:29N 47°41' W 003°22'3 5.8
2018-May-15 00:59N 47°44' W 003°22'0 0.0
2018-May-14 13:27N 47°44' W 003°22'0 0.1
2018-May-14 12:55N 47°44' W 003°22'1 1.8
2018-May-14 12:30N 47°43' W 003°22'3 6.8
2018-May-14 12:00N 47°40' W 003°20'4 7.4
2018-May-14 11:30N 47°38' W 003°15'2 0.3
2018-May-14 02:30N 47°36' W 003°15'4 7.8
2018-May-14 02:00N 47°38' W 003°20'4 7.8
2018-May-14 01:30N 47°41' W 003°22'3 5.2
2018-May-14 00:59N 47°44' W 003°22'0 0.0
2018-May-12 09:35N 47°44' W 003°22'0 0.0
2018-May-12 09:29N 47°44' W 003°22'  

Dump ship's entire track history